Bookmark and Share
Track history (hours):
 

Chiricana

Last reported at 2014-Apr-23 18:15 UTC. Time now 2014-Apr-24 09:04 UTC.
Position N 40°06' W 029°08'.

Length 300 m; draft 11.6 m.

Type: Ship (hazmat cat A). MMSI: 372829000.

NotesDate/timePositionNaut miles runAvg speedWind from/ knotsBaromVisibWave heightAir tempDewpointWater temp
2014-Apr-23 18:15N 40°06' W 029°08'1217.9
2014-Apr-23 17:33N 40°03' W 028°52'1818.0
2014-Apr-23 16:33N 39°59' W 028°29'1817.9
2014-Apr-23 15:33N 39°56' W 028°06'2017.8
2014-Apr-23 14:27N 39°52' W 027°41'  
2014-Apr-21 06:00N 35°54' W 007°42'10318.3 030 / 251006.0 2.2 2.517.013.7
2014-Apr-21 00:23N 35°57' W 005°35'1112.8
2014-Apr-20 23:33N 36°03' W 005°24'5 5.2
2014-Apr-20 22:31N 36°08' W 005°25'0 0.0
2014-Apr-20 21:31N 36°08' W 005°25'0 0.0
2014-Apr-20 20:31N 36°08' W 005°25'0 0.0
2014-Apr-20 19:31N 36°08' W 005°25'0 0.0
2014-Apr-20 18:31N 36°08' W 005°25'0 0.0
2014-Apr-20 17:31N 36°08' W 005°25'0 0.0
2014-Apr-20 16:31N 36°08' W 005°25'0 0.0
2014-Apr-20 15:31N 36°08' W 005°25'0 0.0
2014-Apr-20 14:31N 36°08' W 005°25'0 0.0
2014-Apr-20 13:31N 36°08' W 005°25'0 0.0
2014-Apr-20 12:31N 36°08' W 005°25'0 0.0
2014-Apr-20 11:31N 36°08' W 005°25'0 0.0
2014-Apr-20 10:31N 36°08' W 005°25'3 3.2
2014-Apr-20 09:33N 36°06' W 005°22'1010.2
2014-Apr-20 08:34N 36°06' W 005°10'22016.9
2014-Apr-19 19:32N 36°38' W 000°40'3815.9
2014-Apr-19 17:07N 36°44' E 000°07'10016.7
2014-Apr-19 11:10N 36°59' E 002°10'1216.2
2014-Apr-19 10:25N 37°01' E 002°26'1615.9
2014-Apr-19 09:25N 37°03' E 002°45'1517.0
2014-Apr-19 08:33N 37°06' E 003°03'1716.5
2014-Apr-19 07:33N 37°08' E 003°24'1917.1
2014-Apr-19 06:25N 37°11' E 003°48'1517.0
2014-Apr-19 05:33N 37°14' E 004°06'1615.7
2014-Apr-19 04:32N 37°15' E 004°26'2216.0
2014-Apr-19 03:09N 37°20' E 004°53'1417.5
2014-Apr-19 02:22N 37°22' E 005°11'1516.3
2014-Apr-19 01:26N 37°24' E 005°29'29816.7
2014-Apr-18 07:33N 37°12' E 011°44'1831.5
2014-Apr-18 07:00N 37°00' E 012°00'5 8.5 300 / 201012.0 5.4 2.517.011.9
2014-Apr-18 06:26N 37°03' E 012°05'1516.6
2014-Apr-18 05:33N 36°55' E 012°21'1716.8
2014-Apr-18 04:33N 36°49' E 012°40'6716.7
2014-Apr-18 00:33N 36°29' E 013°59'1616.5
2014-Apr-17 23:33N 36°24' E 014°19'29616.9
2014-Apr-17 06:00N 34°54' E 020°06'   350 / 171010.0 5.4 1.016.5 9.4

Dump ship's entire track history

sailing weather and tide predictions

Chiricana — 3EKU3 — position and weather